Details From LEZL - Sevilla
To LEMG - Malaga
Flight Number -
Tags Generated
Created
Modified
Stats Distance 80 nm / 149 km
Max Altitude 0 ft / 0 m
Waypoints 2
Social Downloads 1
Likes 0
Share VATSIM

Download

Looking for another format? Having issues loading an existing format? Contact us
Advertisement - Login to hide

Notes

Generated

Route

LEZL LEMG

ID Type Via Altitude Latitude Longitude Leg Dist Tot Dist Heading (true) Name
O LEZL APT - 0 ft / 0 m 37.41788˚ -5.91208˚ - 0 nm - -
O LEMG APT - 0 ft / 0 m 36.68453˚ -4.51259˚ 80 nm 80 nm 123° / 124° -

Altitude Profile

Advertisement - Login to hide

LEZL

Details ICAO LEZL (SVQ)
Name Sevilla
Region Spain
Timezone Europe/Madrid (UTC+2.0)
Stats Elevation 111 ft / 34 m (AMSL)
Location 37.417939° -5.893093°
Runways 1
Magnetic Variation 1.245° W

METAR

LEZL 231300Z 30004KT 210V350 CAVOK 25/14 Q1014 NOSIG

Decode

TAF

TAF LEZL 230800Z 2309/2409 02007KT 9999 FEW040 TX26/2316Z TN15/2405Z PROB30 TEMPO 2401/2405 4000 SHRA FEW045CB

Decode

Departure Runways

ID Width Length Bearing (true) Bearing (mag) Surface Threshold Offset Overrun Length
09 148 ft / 45 m 11,008 ft / 3,355 m 89.75° 91.00° Asphalt 0 ft / 0 m 0 ft / 0 m
27 148 ft / 45 m 11,008 ft / 3,355 m 269.77° 271.02° Asphalt 0 ft / 0 m 0 ft / 0 m

LEMG

Details ICAO LEMG (AGP)
Name Malaga
Region Spain
Timezone Europe/Madrid (UTC+2.0)
Stats Elevation 52 ft / 16 m (AMSL)
Location 36.679780° -4.495899°
Runways 2
Magnetic Variation 0.827° W

METAR

LEMG 231300Z 12007KT 9999 FEW060 24/11 Q1015 NOSIG

Decode

TAF

TAF TAF LEMG 231100Z 2312/2412 13008KT 9999 SCT050 TX25/2313Z TN17/2405Z BECMG 2318/2322 30004KT BECMG 2408/2410 17008KT

Decode

Destination Runways

ID Width Length Bearing (true) Bearing (mag) Surface Threshold Offset Overrun Length
12 148 ft / 45 m 10,057 ft / 3,065 m 117.76° 118.59° Asphalt 0 ft / 0 m 650 ft / 198 m
13 148 ft / 45 m 10,509 ft / 3,203 m 131.69° 132.52° Asphalt 0 ft / 0 m 246 ft / 75 m
30 148 ft / 45 m 10,057 ft / 3,065 m 297.78° 298.61° Asphalt 1,115 ft / 340 m 466 ft / 142 m
31 148 ft / 45 m 10,509 ft / 3,203 m 311.70° 312.53° Asphalt 0 ft / 0 m 246 ft / 75 m

Approach Navaids

Runway Type Ident Frequency Range Bearing (true) Bearing (mag) Slope Elevation
12 Localiser IMG 110.55 MHz 15 nm / 28 km 117.70° 118.53° - 52 ft / 16 m (AMSL)
12 Glidescope IMG 110.55 MHz 8 nm / 15 km 0.00° 0.83° 3.00° 52 ft / 16 m (AMSL)
12 DME IMG 110.55 MHz 18 nm / 33 km - - - 52 ft / 16 m (AMSL)
13 Localiser GMM 109.50 MHz 18 nm / 33 km 131.70° 132.53° - 52 ft / 16 m (AMSL)
13 Glidescope GMM 109.50 MHz 10 nm / 19 km 131.69° 132.52° 3.20° 69 ft / 21 m (AMSL)
13 DME GMM 109.50 MHz 18 nm / 33 km - - - 69 ft / 21 m (AMSL)
31 Localiser GAA 109.90 MHz 18 nm / 33 km 311.68° 312.51° - 52 ft / 16 m (AMSL)
31 Glidescope GAA 109.90 MHz 10 nm / 19 km 311.69° 312.52° 3.00° 56 ft / 17 m (AMSL)
31 DME GAA 109.90 MHz 18 nm / 33 km - - - 56 ft / 17 m (AMSL)

Popular Alternatives